createdAt,value
2022-11-27T00:01:34.629Z,51344.84
2022-11-27T00:04:01.902Z,51330.94
2022-11-27T00:06:31.065Z,51317.00
2022-11-27T00:09:00.531Z,51348.81
2022-11-27T00:11:30.303Z,51313.03
2022-11-27T00:13:57.582Z,51317.00
2022-11-27T00:16:26.639Z,51326.94
2022-11-27T00:18:54.192Z,51322.97
2022-11-27T00:21:31.205Z,51340.88
2022-11-27T00:24:01.220Z,51330.94
2022-11-27T00:26:34.474Z,51346.84
2022-11-27T00:29:05.620Z,51332.91
2022-11-27T00:31:34.554Z,51295.16
2022-11-27T00:34:05.239Z,51336.91
2022-11-27T00:36:34.904Z,51315.03
2022-11-27T00:39:02.307Z,51346.84
2022-11-27T00:41:31.333Z,51305.09
2022-11-27T00:43:58.884Z,51328.94
2022-11-27T00:46:30.739Z,51313.03
2022-11-27T00:48:59.804Z,51328.94
2022-11-27T00:51:28.396Z,51322.97
2022-11-27T00:53:56.480Z,51338.88
2022-11-27T00:56:27.844Z,51303.09
2022-11-27T00:58:55.302Z,51322.97
2022-11-27T01:01:30.079Z,51293.16
2022-11-27T01:03:59.321Z,51317.00
2022-11-27T01:06:28.272Z,51336.91
2022-11-27T01:08:55.824Z,51317.00
2022-11-27T01:11:29.559Z,51315.03
2022-11-27T01:14:00.319Z,51328.94
2022-11-27T01:16:31.837Z,51354.78
2022-11-27T01:19:01.091Z,51340.88
2022-11-27T01:21:32.423Z,51321.00
2022-11-27T01:24:00.521Z,51317.00
2022-11-27T01:26:28.017Z,51307.06
2022-11-27T01:28:57.537Z,51291.16
2022-11-27T01:31:28.776Z,51328.94
2022-11-27T01:33:59.867Z,51340.88
2022-11-27T01:36:27.431Z,51332.91
2022-11-27T01:38:54.853Z,51297.13
2022-11-27T01:41:35.122Z,51334.91
2022-11-27T01:44:24.184Z,51317.00
2022-11-27T01:47:05.772Z,51303.09
2022-11-27T01:49:47.469Z,51330.94
2022-11-27T01:52:32.573Z,51321.00
2022-11-27T01:55:13.443Z,51322.97
2022-11-27T01:57:45.770Z,51305.09
2022-11-27T02:00:15.244Z,51307.06
2022-11-27T02:02:44.145Z,51303.09
2022-11-27T02:05:17.056Z,51319.00
2022-11-27T02:07:45.664Z,51307.06
2022-11-27T02:10:13.509Z,51336.91
2022-11-27T02:13:31.246Z,51315.03
2022-11-27T02:16:22.209Z,51334.91
2022-11-27T02:19:12.831Z,51317.00
2022-11-27T02:21:50.036Z,51319.00
2022-11-27T02:25:01.018Z,51315.03
2022-11-27T02:28:19.263Z,51321.00
2022-11-27T02:30:56.614Z,51317.00
2022-11-27T02:33:25.278Z,51317.00
2022-11-27T02:36:08.056Z,51348.81
2022-11-27T02:38:45.797Z,51315.03
2022-11-27T02:41:40.290Z,51324.97
2022-11-27T02:44:09.372Z,51324.97
2022-11-27T02:46:38.061Z,51307.06
2022-11-27T02:49:12.123Z,51313.03
2022-11-27T02:51:46.880Z,51307.06
2022-11-27T02:54:25.407Z,51315.03
2022-11-27T02:56:55.118Z,51305.09
2022-11-27T02:59:25.519Z,51315.03
2022-11-27T03:02:01.489Z,51324.97
2022-11-27T03:04:37.511Z,51338.88
2022-11-27T03:07:15.968Z,51319.00
2022-11-27T03:09:48.750Z,51309.06
2022-11-27T03:12:18.056Z,51324.97
2022-11-27T03:14:47.102Z,51336.91
2022-11-27T03:17:36.846Z,51311.06
2022-11-27T03:20:27.374Z,51315.03
2022-11-27T03:22:55.444Z,51324.97
2022-11-27T03:25:23.755Z,51324.97
2022-11-27T03:28:06.424Z,51297.13
2022-11-27T03:30:33.992Z,51324.97
2022-11-27T03:33:02.544Z,51299.13
2022-11-27T03:35:29.887Z,51332.91
2022-11-27T03:37:57.108Z,51313.03
2022-11-27T03:40:33.052Z,51330.94
2022-11-27T03:43:14.455Z,51326.94
2022-11-27T03:46:09.002Z,51321.00
2022-11-27T03:48:45.905Z,51301.09
2022-11-27T03:51:31.426Z,51336.91
2022-11-27T03:54:22.235Z,51287.19
2022-11-27T03:57:02.601Z,51328.94
2022-11-27T03:59:37.787Z,51317.00
2022-11-27T04:02:05.073Z,51303.09
2022-11-27T04:04:32.616Z,51317.00
2022-11-27T04:07:00.866Z,51324.97
2022-11-27T04:09:27.938Z,51322.97
2022-11-27T04:11:54.985Z,51281.22
2022-11-27T04:14:21.998Z,51322.97
2022-11-27T04:16:49.052Z,51305.09
2022-11-27T04:19:16.126Z,51305.09
2022-11-27T04:21:43.125Z,51301.09
2022-11-27T04:24:10.112Z,51334.91
2022-11-27T04:26:37.187Z,51277.25
2022-11-27T04:29:04.311Z,51287.19
2022-11-27T04:31:31.415Z,51295.16
2022-11-27T04:33:58.470Z,51307.06
2022-11-27T04:36:25.494Z,51287.19
2022-11-27T04:38:52.616Z,51299.13
2022-11-27T04:41:19.627Z,51289.19
2022-11-27T04:43:46.654Z,51287.19
2022-11-27T04:46:13.729Z,51293.16
2022-11-27T04:48:40.864Z,51285.19
2022-11-27T04:51:08.111Z,51279.25
2022-11-27T04:53:35.377Z,51330.94
2022-11-27T04:56:02.406Z,51303.09
2022-11-27T04:58:29.408Z,51283.22
2022-11-27T05:00:56.556Z,51311.06
2022-11-27T05:03:23.677Z,51328.94
2022-11-27T05:05:58.631Z,51287.19
2022-11-27T05:08:26.377Z,51301.09
2022-11-27T05:11:13.403Z,51301.09
2022-11-27T05:13:41.244Z,51269.31
2022-11-27T05:16:09.692Z,51287.19
2022-11-27T05:18:37.071Z,51285.19
2022-11-27T05:21:08.418Z,51313.03
2022-11-27T05:23:35.632Z,51315.03
2022-11-27T05:26:03.533Z,51293.16
2022-11-27T05:28:30.716Z,51295.16
2022-11-27T05:30:57.892Z,51297.13
2022-11-27T05:33:24.974Z,51321.00
2022-11-27T05:35:52.010Z,51287.19
2022-11-27T05:38:19.160Z,51305.09
2022-11-27T05:40:46.177Z,51281.22
2022-11-27T05:43:13.206Z,51297.13
2022-11-27T05:45:40.252Z,51315.03
2022-11-27T05:48:07.309Z,51291.16
2022-11-27T05:50:34.376Z,51297.13
2022-11-27T05:53:01.488Z,51277.25
2022-11-27T05:55:28.519Z,51281.22
2022-11-27T05:57:55.538Z,51279.25
2022-11-27T06:00:22.876Z,51289.19
2022-11-27T06:02:49.979Z,51295.16
2022-11-27T06:05:17.195Z,51289.19
2022-11-27T06:07:44.356Z,51313.03
2022-11-27T06:10:11.785Z,51285.19
2022-11-27T06:12:39.248Z,51307.06
2022-11-27T06:15:08.162Z,51279.25
2022-11-27T06:17:35.269Z,51303.09
2022-11-27T06:20:02.303Z,51279.25
2022-11-27T06:22:30.706Z,51322.97
2022-11-27T06:24:57.697Z,51277.25
2022-11-27T06:27:24.796Z,51307.06
2022-11-27T06:29:51.856Z,51287.19
2022-11-27T06:32:18.919Z,51271.28
2022-11-27T06:34:45.944Z,51297.13
2022-11-27T06:37:13.561Z,51269.31
2022-11-27T06:39:40.858Z,51293.16
2022-11-27T06:42:08.040Z,51293.16
2022-11-27T06:44:35.250Z,51293.16
2022-11-27T06:47:02.328Z,51279.25
2022-11-27T06:49:29.353Z,51263.34
2022-11-27T06:51:56.453Z,51297.13
2022-11-27T06:54:23.638Z,51281.22
2022-11-27T06:56:51.281Z,51279.25
2022-11-27T06:59:19.168Z,51303.09
2022-11-27T07:01:46.581Z,51277.25
2022-11-27T07:04:15.563Z,51303.09
2022-11-27T07:06:43.380Z,51265.31
2022-11-27T07:09:10.617Z,51287.19
2022-11-27T07:11:39.897Z,51287.19
2022-11-27T07:14:07.550Z,51295.16
2022-11-27T07:16:36.615Z,51277.25
2022-11-27T07:19:08.167Z,51321.00
2022-11-27T07:21:38.173Z,51301.09
2022-11-27T07:24:05.753Z,51291.16
2022-11-27T07:26:33.277Z,51283.22
2022-11-27T07:29:00.366Z,51285.19
2022-11-27T07:31:31.347Z,51313.03
2022-11-27T07:33:59.172Z,51303.09
2022-11-27T07:36:33.262Z,51273.28
2022-11-27T07:39:00.438Z,51297.13
2022-11-27T07:41:33.887Z,51269.31
2022-11-27T07:44:01.727Z,51328.94
2022-11-27T07:46:30.226Z,51317.00
2022-11-27T07:48:57.358Z,51293.16
2022-11-27T07:51:24.444Z,51319.00
2022-11-27T07:53:54.361Z,51287.19
2022-11-27T07:56:21.994Z,51273.28
2022-11-27T07:58:49.420Z,51305.09
2022-11-27T08:01:19.673Z,51299.13
2022-11-27T08:03:47.296Z,51287.19
2022-11-27T08:06:32.549Z,51281.22
2022-11-27T08:08:59.847Z,51303.09
2022-11-27T08:11:35.540Z,51305.09
2022-11-27T08:14:06.728Z,51279.25
2022-11-27T08:16:35.536Z,51285.19
2022-11-27T08:19:03.035Z,51271.28
2022-11-27T08:21:30.907Z,51287.19
2022-11-27T08:23:58.435Z,51291.16
2022-11-27T08:26:29.205Z,51283.22
2022-11-27T08:28:57.679Z,51291.16
2022-11-27T08:31:24.960Z,51321.00
2022-11-27T08:33:52.475Z,51322.97
2022-11-27T08:36:19.658Z,51285.19
2022-11-27T08:38:47.239Z,51315.03
2022-11-27T08:41:14.501Z,51287.19
2022-11-27T08:43:41.642Z,51285.19
2022-11-27T08:46:08.727Z,51305.09
2022-11-27T08:48:36.622Z,51297.13
2022-11-27T08:51:10.858Z,51328.94
2022-11-27T08:53:38.129Z,51303.09
2022-11-27T08:56:21.806Z,51289.19
2022-11-27T08:58:49.862Z,51261.34
2022-11-27T09:01:23.220Z,51313.03
2022-11-27T09:03:51.182Z,51301.09
2022-11-27T09:06:21.505Z,51313.03
2022-11-27T09:08:49.505Z,51324.97
2022-11-27T09:11:20.157Z,51299.13
2022-11-27T09:13:48.034Z,51287.19
2022-11-27T09:16:20.095Z,51299.13
2022-11-27T09:18:50.357Z,51293.16
2022-11-27T09:21:19.865Z,51297.13
2022-11-27T09:23:47.411Z,51303.09
2022-11-27T09:26:17.185Z,51321.00
2022-11-27T09:28:45.210Z,51297.13
2022-11-27T09:31:14.841Z,51291.16
2022-11-27T09:33:43.140Z,51277.25
2022-11-27T09:36:23.873Z,51305.09
2022-11-27T09:38:51.453Z,51297.13
2022-11-27T09:41:40.157Z,51285.19
2022-11-27T09:44:48.893Z,51301.09
2022-11-27T09:47:26.251Z,51309.06
2022-11-27T09:50:03.866Z,51317.00
2022-11-27T09:52:41.864Z,51297.13
2022-11-27T09:55:44.943Z,51317.00
2022-11-27T09:58:36.692Z,51317.00
2022-11-27T10:01:17.313Z,51321.00
2022-11-27T10:03:46.145Z,51273.28
2022-11-27T10:06:36.176Z,51313.03
2022-11-27T10:09:32.624Z,51291.16
2022-11-27T10:12:18.351Z,51313.03
2022-11-27T10:15:24.848Z,51313.03
2022-11-27T10:18:03.272Z,51287.19
2022-11-27T10:20:51.791Z,51297.13
2022-11-27T10:23:38.523Z,51313.03
2022-11-27T10:26:39.106Z,51289.19
2022-11-27T10:29:18.166Z,51297.13
2022-11-27T10:32:00.044Z,51295.16
2022-11-27T10:34:48.680Z,51326.94
2022-11-27T10:37:59.762Z,51344.84
2022-11-27T10:41:18.622Z,51299.13
2022-11-27T10:44:23.009Z,51322.97
2022-11-27T10:46:53.086Z,51299.13
2022-11-27T10:49:20.206Z,51311.06
2022-11-27T10:51:47.238Z,51317.00
2022-11-27T10:54:43.581Z,51326.94
2022-11-27T10:57:19.396Z,51324.97
2022-11-27T11:00:23.919Z,51348.81
2022-11-27T11:03:14.956Z,51358.75
2022-11-27T11:06:04.494Z,51358.75
2022-11-27T11:08:30.109Z,51382.63
2022-11-27T11:10:57.166Z,51376.66
2022-11-27T11:13:30.228Z,51394.53
2022-11-27T11:16:04.428Z,51402.50
2022-11-27T11:18:55.759Z,51412.44
2022-11-27T11:21:40.582Z,51446.25
2022-11-27T11:24:15.727Z,51484.00
2022-11-27T11:26:54.228Z,51484.00
2022-11-27T11:29:36.624Z,51513.84
2022-11-27T11:32:21.747Z,51535.69
2022-11-27T11:35:03.732Z,51575.47
2022-11-27T11:37:33.994Z,51583.41
2022-11-27T11:40:17.660Z,51607.28
2022-11-27T11:43:02.638Z,51664.94
2022-11-27T11:45:49.002Z,51718.63
2022-11-27T11:48:38.138Z,51810.09
2022-11-27T11:51:38.265Z,51660.97
2022-11-27T11:54:21.031Z,51607.28
2022-11-27T11:56:53.037Z,51545.66
2022-11-27T11:59:45.333Z,51527.75
2022-11-27T12:02:42.827Z,51593.38
2022-11-27T12:05:41.183Z,51633.13
2022-11-27T12:08:39.858Z,51698.75
2022-11-27T12:11:16.493Z,51706.69
2022-11-27T12:14:08.289Z,51750.44
2022-11-27T12:17:03.584Z,51736.53
2022-11-27T12:19:56.191Z,51740.50
2022-11-27T12:22:47.662Z,51812.06
2022-11-27T12:25:47.255Z,51804.13
2022-11-27T12:28:48.706Z,51855.81
2022-11-27T12:31:46.266Z,51855.81
2022-11-27T12:34:27.967Z,51879.69
2022-11-27T12:37:39.847Z,51891.59
2022-11-27T12:40:48.693Z,51826.00
2022-11-27T12:43:33.420Z,51857.81
2022-11-27T12:46:44.992Z,51873.72
2022-11-27T12:49:25.661Z,51865.75
2022-11-27T12:52:17.144Z,51853.81
2022-11-27T12:55:12.435Z,51845.88
2022-11-27T12:57:51.870Z,51786.22
2022-11-27T13:00:25.421Z,51812.06
2022-11-27T13:03:36.267Z,51772.31
2022-11-27T13:06:11.495Z,51812.06
2022-11-27T13:08:55.158Z,51855.81
2022-11-27T13:11:31.367Z,51796.16
2022-11-27T13:14:14.748Z,51841.91
2022-11-27T13:16:49.186Z,51770.31
2022-11-27T13:19:27.114Z,51770.31
2022-11-27T13:21:56.438Z,51736.53
2022-11-27T13:24:26.500Z,51718.63
2022-11-27T13:27:10.021Z,51718.63
2022-11-27T13:29:43.846Z,51728.56
2022-11-27T13:32:37.396Z,51704.69
2022-11-27T13:35:38.022Z,51760.38
2022-11-27T13:38:36.545Z,51740.50
2022-11-27T13:41:06.248Z,51714.66
2022-11-27T13:43:48.368Z,51682.84
2022-11-27T13:46:25.254Z,51670.91
2022-11-27T13:49:05.277Z,51639.09
2022-11-27T13:51:39.764Z,51547.63
2022-11-27T13:54:07.682Z,51509.84
2022-11-27T13:56:34.899Z,51476.06
2022-11-27T13:59:24.424Z,51446.25
2022-11-27T14:01:59.689Z,51408.47
2022-11-27T14:04:29.097Z,51400.50
2022-11-27T14:07:03.440Z,51408.47
2022-11-27T14:09:54.441Z,51384.59
2022-11-27T14:12:30.336Z,51384.59
2022-11-27T14:15:23.370Z,51392.56
2022-11-27T14:18:13.980Z,51360.75
2022-11-27T14:20:55.572Z,51394.53
2022-11-27T14:23:49.107Z,51364.72
2022-11-27T14:26:16.136Z,51360.75
2022-11-27T14:28:49.303Z,51350.81
2022-11-27T14:31:34.138Z,51348.81
2022-11-27T14:34:15.659Z,51376.66
2022-11-27T14:36:43.973Z,51346.84
2022-11-27T14:39:23.080Z,51362.75
2022-11-27T14:42:29.325Z,51340.88
2022-11-27T14:45:10.923Z,51366.72
2022-11-27T14:47:41.338Z,51332.91
2022-11-27T14:50:13.699Z,51340.88
2022-11-27T14:52:44.263Z,51315.03
2022-11-27T14:55:19.673Z,51326.94
2022-11-27T14:57:49.273Z,51322.97
2022-11-27T15:00:24.359Z,51313.03
2022-11-27T15:02:52.096Z,51319.00
2022-11-27T15:05:30.092Z,51313.03
2022-11-27T15:07:58.954Z,51328.94
2022-11-27T15:10:35.859Z,51319.00
2022-11-27T15:13:05.605Z,51313.03
2022-11-27T15:15:43.328Z,51330.94
2022-11-27T15:18:24.796Z,51315.03
2022-11-27T15:20:53.132Z,51344.84
2022-11-27T15:23:34.052Z,51303.09
2022-11-27T15:26:15.105Z,51309.06
2022-11-27T15:28:53.472Z,51303.09
2022-11-27T15:31:38.046Z,51281.22
2022-11-27T15:34:17.561Z,51326.94
2022-11-27T15:37:22.322Z,51321.00
2022-11-27T15:39:55.654Z,51305.09
2022-11-27T15:42:23.756Z,51299.13
2022-11-27T15:44:57.970Z,51307.06
2022-11-27T15:47:32.584Z,51313.03
2022-11-27T15:49:59.966Z,51283.22
2022-11-27T15:52:27.710Z,51287.19
2022-11-27T15:54:56.591Z,51301.09
2022-11-27T15:57:24.575Z,51307.06
2022-11-27T15:59:51.806Z,51273.28
2022-11-27T16:02:19.006Z,51301.09
2022-11-27T16:04:46.150Z,51269.31
2022-11-27T16:07:13.183Z,51289.19
2022-11-27T16:09:40.466Z,51281.22
2022-11-27T16:12:07.826Z,51279.25
2022-11-27T16:14:38.935Z,51287.19
2022-11-27T16:17:06.337Z,51289.19
2022-11-27T16:19:35.887Z,51267.31
2022-11-27T16:22:03.231Z,51277.25
2022-11-27T16:24:30.321Z,51303.09
2022-11-27T16:26:57.488Z,51281.22
2022-11-27T16:29:27.600Z,51295.16
2022-11-27T16:31:57.185Z,51273.28
2022-11-27T16:34:24.632Z,51255.38
2022-11-27T16:36:57.781Z,51283.22
2022-11-27T16:39:26.134Z,51285.19
2022-11-27T16:41:53.293Z,51281.22
2022-11-27T16:44:20.921Z,51271.28
2022-11-27T16:46:53.677Z,51271.28
2022-11-27T16:49:21.884Z,51271.28
2022-11-27T16:51:50.389Z,51277.25
2022-11-27T16:54:18.767Z,51285.19
2022-11-27T16:56:46.611Z,51267.31
2022-11-27T16:59:15.104Z,51265.31
2022-11-27T17:01:44.015Z,51281.22
2022-11-27T17:04:18.744Z,51273.28
2022-11-27T17:06:48.129Z,51245.44
2022-11-27T17:09:16.479Z,51267.31
2022-11-27T17:11:48.895Z,51253.41
2022-11-27T17:14:16.831Z,51257.38
2022-11-27T17:16:45.065Z,51245.44
2022-11-27T17:19:15.892Z,51269.31
2022-11-27T17:21:44.694Z,51255.38
2022-11-27T17:24:15.759Z,51253.41
2022-11-27T17:26:46.960Z,51253.41
2022-11-27T17:29:17.350Z,51257.38
2022-11-27T17:31:44.985Z,51261.34
2022-11-27T17:34:16.978Z,51283.22
2022-11-27T17:36:45.603Z,51249.41
2022-11-27T17:39:15.313Z,51265.31
2022-11-27T17:41:46.447Z,51261.34
2022-11-27T17:44:14.911Z,51257.38
2022-11-27T17:46:45.178Z,51239.47
2022-11-27T17:49:13.380Z,51245.44
2022-11-27T17:51:45.439Z,51263.34
2022-11-27T17:54:14.349Z,51267.31
2022-11-27T17:56:41.642Z,51245.44
2022-11-27T17:59:10.218Z,51209.66
2022-11-27T18:01:38.595Z,51251.41
2022-11-27T18:04:06.044Z,51239.47
2022-11-27T18:06:34.491Z,51253.41
2022-11-27T18:09:02.118Z,51233.50
2022-11-27T18:11:33.753Z,51235.50
2022-11-27T18:14:01.408Z,51251.41
2022-11-27T18:16:34.186Z,51259.34
2022-11-27T18:19:07.064Z,51243.47
2022-11-27T18:21:35.439Z,51245.44
2022-11-27T18:29:42.536Z,51247.44
2022-11-27T18:32:11.528Z,51243.47
2022-11-27T18:34:39.087Z,51253.41
2022-11-27T18:37:06.837Z,51251.41
2022-11-27T18:39:35.551Z,51235.50
2022-11-27T18:42:04.926Z,51247.44
2022-11-27T18:44:37.350Z,51261.34
2022-11-27T18:47:10.397Z,51281.22
2022-11-27T18:49:39.486Z,51253.41
2022-11-27T18:52:08.905Z,51255.38
2022-11-27T18:54:37.252Z,51253.41
2022-11-27T18:57:07.107Z,51227.56
2022-11-27T18:59:35.170Z,51235.50
2022-11-27T19:02:04.371Z,51237.50
2022-11-27T19:04:31.528Z,51253.41
2022-11-27T19:06:58.584Z,51233.50
2022-11-27T19:09:26.233Z,51257.38
2022-11-27T19:11:53.766Z,51257.38
2022-11-27T19:14:20.850Z,51257.38
2022-11-27T19:16:48.634Z,51241.47
2022-11-27T19:22:10.084Z,51243.47
2022-11-27T19:24:39.742Z,51237.50
2022-11-27T19:27:07.171Z,51237.50
2022-11-27T19:29:35.084Z,51255.38
2022-11-27T19:32:02.929Z,51265.31
2022-11-27T19:34:30.223Z,51251.41
2022-11-27T19:36:58.433Z,51241.47
2022-11-27T19:39:27.285Z,51249.41
2022-11-27T19:41:54.766Z,51269.31
2022-11-27T19:44:23.466Z,51269.31
2022-11-27T19:46:50.485Z,51253.41
2022-11-27T19:49:18.797Z,51225.56
2022-11-27T19:51:46.890Z,51231.53
2022-11-27T19:54:15.650Z,51243.47
2022-11-27T19:56:43.458Z,51243.47
2022-11-27T19:59:12.579Z,51259.34
2022-11-27T20:01:41.454Z,51233.50
2022-11-27T20:04:11.695Z,51231.53
2022-11-27T20:06:39.779Z,51229.53
2022-11-27T20:09:08.361Z,51225.56
2022-11-27T20:11:36.387Z,51253.41
2022-11-27T20:14:06.481Z,51263.34
2022-11-27T20:16:35.795Z,51207.66
2022-11-27T20:19:06.039Z,51239.47
2022-11-27T20:21:36.684Z,51237.50
2022-11-27T20:24:04.735Z,51239.47
2022-11-27T20:26:37.076Z,51227.56
2022-11-27T20:29:05.902Z,51213.63
2022-11-27T20:31:36.457Z,51229.53
2022-11-27T20:34:06.980Z,51239.47
2022-11-27T20:36:38.552Z,51235.50
2022-11-27T20:39:06.406Z,51263.34
2022-11-27T20:41:33.853Z,51219.59
2022-11-27T20:44:02.744Z,51227.56
2022-11-27T20:46:32.849Z,51245.44
2022-11-27T20:49:01.601Z,51217.59
2022-11-27T20:51:33.830Z,51213.63
2022-11-27T20:54:09.100Z,51215.63
2022-11-27T20:56:36.553Z,51243.47
2022-11-27T20:59:05.174Z,51213.63
2022-11-27T21:01:36.020Z,51213.63
2022-11-27T21:04:09.544Z,51211.66
2022-11-27T21:06:43.505Z,51221.59
2022-11-27T21:09:13.981Z,51225.56
2022-11-27T21:11:42.496Z,51241.47
2022-11-27T21:14:12.442Z,51243.47
2022-11-27T21:16:44.913Z,51217.59
2022-11-27T21:19:24.246Z,51231.53
2022-11-27T21:21:53.292Z,51233.50
2022-11-27T21:24:23.839Z,51235.50
2022-11-27T21:26:51.124Z,51229.53
2022-11-27T21:29:18.231Z,51229.53
2022-11-27T21:31:47.232Z,51233.50
2022-11-27T21:34:15.892Z,51257.38
2022-11-27T21:36:44.384Z,51213.63
2022-11-27T21:39:17.780Z,51237.50
2022-11-27T21:41:44.839Z,51251.41
2022-11-27T21:44:13.495Z,51201.72
2022-11-27T21:46:40.565Z,51237.50
2022-11-27T21:49:07.631Z,51249.41
2022-11-27T21:51:34.762Z,51211.66
2022-11-27T21:54:08.039Z,51233.50
2022-11-27T21:56:38.220Z,51237.50
2022-11-27T21:59:07.129Z,51211.66
2022-11-27T22:01:34.559Z,51217.59
2022-11-27T22:04:02.734Z,51269.31
2022-11-27T22:06:40.442Z,51241.47
2022-11-27T22:09:14.933Z,51229.53
2022-11-27T22:11:43.126Z,51233.50
2022-11-27T22:14:10.219Z,51249.41
2022-11-27T22:16:45.239Z,51231.53
2022-11-27T22:19:14.347Z,51215.63
2022-11-27T22:21:42.374Z,51211.66
2022-11-27T22:24:15.109Z,51233.50
2022-11-27T22:26:45.453Z,51229.53
2022-11-27T22:29:14.042Z,51229.53
2022-11-27T22:31:41.662Z,51223.56
2022-11-27T22:34:09.028Z,51201.72
2022-11-27T22:36:36.107Z,51225.56
2022-11-27T22:39:07.368Z,51229.53
2022-11-27T22:41:36.861Z,51209.66
2022-11-27T22:44:11.585Z,51225.56
2022-11-27T22:46:40.869Z,51221.59
2022-11-27T22:49:10.861Z,51253.41
2022-11-27T22:51:38.420Z,51229.53
2022-11-27T22:54:08.182Z,51265.31
2022-11-27T22:56:36.140Z,51243.47
2022-11-27T22:59:31.084Z,51265.31
2022-11-27T23:01:53.900Z,51209.66
2022-11-27T23:04:21.203Z,51243.47
2022-11-27T23:06:48.658Z,51251.41
2022-11-27T23:09:18.817Z,51247.44
2022-11-27T23:11:46.681Z,51241.47
2022-11-27T23:14:14.036Z,51213.63
2022-11-27T23:16:41.290Z,51245.44
2022-11-27T23:19:09.248Z,51221.59
2022-11-27T23:21:38.677Z,51223.56
2022-11-27T23:24:08.081Z,51223.56
2022-11-27T23:26:36.058Z,51215.63
2022-11-27T23:29:04.028Z,51233.50
2022-11-27T23:31:35.136Z,51249.41
2022-11-27T23:34:07.531Z,51231.53
2022-11-27T23:36:35.510Z,51253.41
2022-11-27T23:39:06.652Z,51229.53
2022-11-27T23:41:34.193Z,51241.47
2022-11-27T23:44:02.066Z,51237.50
2022-11-27T23:46:30.248Z,51227.56
2022-11-27T23:49:00.073Z,51237.50
2022-11-27T23:51:31.004Z,51233.50
2022-11-27T23:53:59.159Z,51233.50
2022-11-27T23:56:30.131Z,51251.41
2022-11-27T23:58:58.987Z,51231.53
